Time;durP1;ratioP1;P1;durP2;ratioP2;P2;SDS_P1;SDS_P2;PMS_P1;PMS_P2;Temp;Humidity;BMP_temperature;BMP_pressure;BME280_temperature;BME280_humidity;BME280_pressure;Samples;Min_cycle;Max_cycle;Signal;HPM_P1;HPM_P2
2023/06/20 00:00:49;;;;;;;;;;;19.50;99.90;;;;;;4975903;28;20306;-62
2023/06/20 00:03:16;;;;;;;;;;;19.50;99.90;;;;;;4972311;28;20445;-62
2023/06/20 00:05:43;;;;;;;;;;;19.50;99.90;;;;;;4966591;28;19930;-63
2023/06/20 00:08:10;;;;;;;;;;;19.40;99.90;;;;;;4975949;28;19930;-62
2023/06/20 00:10:37;;;;;;;;;;;19.50;99.90;;;;;;4976810;28;20466;-61
2023/06/20 00:13:03;;;;;;;;;;;19.50;99.90;;;;;;4975515;28;20410;-62
2023/06/20 00:15:31;;;;;;;;;;;19.40;99.90;;;;;;4976236;28;19922;-62
2023/06/20 00:18:01;;;;;;;;;;;19.40;99.90;;;;;;4975168;28;19922;-62
2023/06/20 00:20:29;;;;;;;;;;;19.50;99.90;;;;;;4974342;28;19922;-62
2023/06/20 00:22:56;;;;;;;;;;;19.50;99.90;;;;;;4974783;28;20376;-62
2023/06/20 00:25:22;;;;;;;;;;;19.50;99.90;;;;;;4976169;28;20430;-63
2023/06/20 00:27:50;;;;;;;;;;;19.40;99.90;;;;;;4975841;28;19922;-62
2023/06/20 00:30:17;;;;;;;;;;;19.40;99.90;;;;;;4973587;28;19932;-62
2023/06/20 00:32:43;;;;;;;;;;;19.40;99.90;;;;;;4958389;28;19922;-63
2023/06/20 00:35:10;;;;;;;;;;;19.40;99.90;;;;;;4974137;28;20370;-61
2023/06/20 00:37:38;;;;;;;;;;;19.40;99.90;;;;;;4975933;28;19937;-63
2023/06/20 00:40:09;;;;;;;;;;;19.40;99.90;;;;;;4974713;28;19926;-63
2023/06/20 00:42:35;;;;;;;;;;;19.30;99.90;;;;;;4957959;28;19925;-62
2023/06/20 00:45:23;;;;;;;;;;;19.30;99.90;;;;;;4956434;28;20871;-62
2023/06/20 00:47:51;;;;;;;;;;;19.30;99.90;;;;;;4957604;28;19938;-62
2023/06/20 00:50:18;;;;;;;;;;;19.30;99.90;;;;;;4953750;29;19922;-63
2023/06/20 00:52:45;;;;;;;;;;;19.20;99.90;;;;;;4953863;28;19929;-60
2023/06/20 00:55:12;;;;;;;;;;;19.20;99.90;;;;;;4970743;28;19928;-63
2023/06/20 00:57:41;;;;;;;;;;;19.20;99.90;;;;;;4971217;28;19922;-62
2023/06/20 01:00:12;;;;;;;;;;;19.30;99.90;;;;;;4957349;28;19922;-62
2023/06/20 01:02:42;;;;;;;;;;;19.30;99.90;;;;;;4975325;28;19922;-63
2023/06/20 01:05:09;;;;;;;;;;;19.40;99.90;;;;;;4955913;28;19973;-62
2023/06/20 01:07:49;;;;;;;;;;;19.40;99.90;;;;;;4957824;28;19929;-63
2023/06/20 01:10:35;;;;;;;;;;;19.50;99.90;;;;;;4973496;28;19949;-62
2023/06/20 01:13:10;;;;;;;;;;;19.60;99.90;;;;;;4975007;28;20401;-62
2023/06/20 01:15:37;;;;;;;;;;;19.60;99.90;;;;;;4957276;28;20013;-62
2023/06/20 01:18:12;;;;;;;;;;;19.50;99.90;;;;;;4954129;28;19922;-62
2023/06/20 01:20:43;;;;;;;;;;;19.50;99.90;;;;;;4952965;28;20156;-62
2023/06/20 01:23:17;;;;;;;;;;;19.50;99.90;;;;;;4974693;28;19926;-63
2023/06/20 01:25:47;;;;;;;;;;;19.40;99.90;;;;;;4957704;28;20442;-63
2023/06/20 01:28:28;;;;;;;;;;;19.40;99.90;;;;;;4948465;28;19928;-63
2023/06/20 01:30:58;;;;;;;;;;;19.40;99.90;;;;;;4974226;28;19922;-63
2023/06/20 01:33:28;;;;;;;;;;;19.40;99.90;;;;;;4974814;28;19928;-63
2023/06/20 01:35:57;;;;;;;;;;;19.50;99.90;;;;;;4956532;28;19985;-62
2023/06/20 01:38:26;;;;;;;;;;;19.50;99.90;;;;;;4962374;28;19927;-62
2023/06/20 01:40:54;;;;;;;;;;;19.50;99.90;;;;;;4953948;28;20394;-62
2023/06/20 01:43:22;;;;;;;;;;;19.50;99.90;;;;;;4953365;28;19969;-62
2023/06/20 01:45:50;;;;;;;;;;;19.60;99.90;;;;;;4986185;28;20413;-62
2023/06/20 01:48:18;;;;;;;;;;;19.50;99.90;;;;;;4956458;28;19929;-63
2023/06/20 01:50:46;;;;;;;;;;;19.50;99.90;;;;;;4956506;28;19957;-63
2023/06/20 01:53:13;;;;;;;;;;;19.50;99.90;;;;;;4958201;28;19922;-62
2023/06/20 01:55:41;;;;;;;;;;;19.40;99.90;;;;;;4956665;28;19936;-62
2023/06/20 01:58:08;;;;;;;;;;;19.40;99.90;;;;;;4956655;28;19922;-63
2023/06/20 02:00:36;;;;;;;;;;;19.30;99.90;;;;;;4956470;28;19926;-62
2023/06/20 02:03:03;;;;;;;;;;;19.20;99.90;;;;;;4957724;28;20037;-62
2023/06/20 02:05:34;;;;;;;;;;;19.20;99.90;;;;;;4956859;28;19926;-62
2023/06/20 02:08:01;;;;;;;;;;;19.20;99.90;;;;;;4956230;28;19969;-62
2023/06/20 02:10:29;;;;;;;;;;;19.20;99.90;;;;;;4955180;28;19957;-62
2023/06/20 02:12:57;;;;;;;;;;;19.20;99.90;;;;;;4969916;28;19922;-62
2023/06/20 02:15:25;;;;;;;;;;;19.10;99.90;;;;;;4955803;28;20555;-63
2023/06/20 02:17:53;;;;;;;;;;;19.10;99.90;;;;;;4972583;28;19926;-62
2023/06/20 02:20:19;;;;;;;;;;;19.20;99.90;;;;;;4973632;28;19953;-62
2023/06/20 02:22:46;;;;;;;;;;;19.10;99.90;;;;;;4954040;28;19926;-62
2023/06/20 02:25:19;;;;;;;;;;;19.00;99.90;;;;;;4956474;28;20274;-62
2023/06/20 02:27:47;;;;;;;;;;;19.00;99.90;;;;;;4973468;28;19922;-62
2023/06/20 02:30:18;;;;;;;;;;;19.00;99.90;;;;;;4947626;28;19973;-62
2023/06/20 02:32:47;;;;;;;;;;;19.00;99.90;;;;;;4955809;28;20333;-63
2023/06/20 02:35:16;;;;;;;;;;;19.00;99.90;;;;;;4955861;28;19947;-62
2023/06/20 02:37:46;;;;;;;;;;;19.00;99.90;;;;;;4973603;28;20464;-61
2023/06/20 02:40:13;;;;;;;;;;;19.00;99.90;;;;;;4946492;28;19930;-62
2023/06/20 02:42:40;;;;;;;;;;;18.90;99.90;;;;;;4973553;28;19929;-62
2023/06/20 02:45:10;;;;;;;;;;;19.00;99.90;;;;;;4973017;28;20031;-63
2023/06/20 02:47:56;;;;;;;;;;;19.00;99.90;;;;;;4955922;28;20386;-62
2023/06/20 02:50:41;;;;;;;;;;;19.00;99.90;;;;;;4944793;28;19926;-62
2023/06/20 02:53:17;;;;;;;;;;;18.90;99.90;;;;;;4954252;28;19948;-62
2023/06/20 02:55:53;;;;;;;;;;;18.80;99.90;;;;;;4955002;28;19922;-63
2023/06/20 02:58:21;;;;;;;;;;;18.80;99.90;;;;;;4960772;28;20596;-62
2023/06/20 03:00:52;;;;;;;;;;;18.80;99.90;;;;;;4955678;28;19926;-63
2023/06/20 03:03:35;;;;;;;;;;;18.80;99.90;;;;;;4947904;28;19969;-62
2023/06/20 03:06:06;;;;;;;;;;;18.70;99.90;;;;;;4973214;28;19932;-62
2023/06/20 03:08:33;;;;;;;;;;;18.70;99.90;;;;;;4953703;28;20691;-62
2023/06/20 03:11:01;;;;;;;;;;;18.70;99.90;;;;;;4951414;28;20429;-62
2023/06/20 03:13:29;;;;;;;;;;;18.60;99.90;;;;;;4955141;28;19928;-62
2023/06/20 03:15:56;;;;;;;;;;;18.60;99.90;;;;;;4955180;28;19940;-62
2023/06/20 03:18:24;;;;;;;;;;;18.50;99.90;;;;;;4952418;28;19929;-62
2023/06/20 03:20:52;;;;;;;;;;;18.50;99.90;;;;;;4944451;28;19969;-63
2023/06/20 03:23:21;;;;;;;;;;;18.50;99.90;;;;;;4955773;28;19922;-62
2023/06/20 03:25:48;;;;;;;;;;;18.50;99.90;;;;;;4955579;28;19929;-63
2023/06/20 03:28:15;;;;;;;;;;;18.50;99.90;;;;;;4965936;28;22722;-63
2023/06/20 03:30:48;;;;;;;;;;;18.60;99.90;;;;;;4951070;28;20263;-62
2023/06/20 03:33:15;;;;;;;;;;;18.60;99.90;;;;;;4955273;28;19972;-62
2023/06/20 03:35:41;;;;;;;;;;;18.60;99.90;;;;;;4955729;28;19972;-63
2023/06/20 03:38:11;;;;;;;;;;;18.40;99.90;;;;;;4979800;28;19953;-63
2023/06/20 03:40:38;;;;;;;;;;;18.40;99.90;;;;;;4955202;28;19958;-61
2023/06/20 03:43:05;;;;;;;;;;;18.50;99.90;;;;;;4955031;28;19922;-62
2023/06/20 03:45:32;;;;;;;;;;;18.70;99.90;;;;;;4953132;28;19976;-62
2023/06/20 03:47:58;;;;;;;;;;;18.90;99.90;;;;;;4957544;28;19922;-63
2023/06/20 03:50:25;;;;;;;;;;;18.90;99.90;;;;;;4954990;28;19921;-62
2023/06/20 03:52:52;;;;;;;;;;;18.90;99.90;;;;;;4954449;28;19922;-62
2023/06/20 03:55:19;;;;;;;;;;;18.80;99.90;;;;;;4955390;28;19961;-62
2023/06/20 03:57:47;;;;;;;;;;;18.80;99.90;;;;;;4976596;28;19974;-62
2023/06/20 04:00:14;;;;;;;;;;;18.80;99.90;;;;;;4954876;28;19922;-62
2023/06/20 04:02:46;;;;;;;;;;;18.80;99.90;;;;;;4955209;28;20424;-62
2023/06/20 04:05:13;;;;;;;;;;;18.80;99.90;;;;;;4945378;28;19986;-62
2023/06/20 04:07:43;;;;;;;;;;;18.70;99.90;;;;;;4977015;28;19922;-62
2023/06/20 04:10:11;;;;;;;;;;;18.70;99.90;;;;;;4971993;28;20341;-62
2023/06/20 04:12:39;;;;;;;;;;;18.70;99.90;;;;;;4971844;28;19930;-62
2023/06/20 04:15:06;;;;;;;;;;;18.70;99.90;;;;;;4965957;28;20004;-62
2023/06/20 04:17:33;;;;;;;;;;;18.80;99.90;;;;;;4974519;28;19922;-62
2023/06/20 04:20:04;;;;;;;;;;;18.80;99.90;;;;;;4942138;28;19922;-62
2023/06/20 04:22:33;;;;;;;;;;;18.80;99.90;;;;;;4956699;28;19929;-62
2023/06/20 04:25:00;;;;;;;;;;;18.90;99.90;;;;;;4956529;28;20012;-62
2023/06/20 04:27:27;;;;;;;;;;;18.90;99.90;;;;;;4956529;28;19941;-62
2023/06/20 04:29:57;;;;;;;;;;;18.90;99.90;;;;;;4956338;28;20351;-62
2023/06/20 04:32:24;;;;;;;;;;;18.90;99.90;;;;;;4956738;28;19929;-62
2023/06/20 04:34:52;;;;;;;;;;;18.90;99.90;;;;;;4957505;28;19932;-62
2023/06/20 04:37:22;;;;;;;;;;;18.90;99.90;;;;;;4956176;28;19929;-62
2023/06/20 04:39:49;;;;;;;;;;;18.90;99.90;;;;;;4957387;28;20330;-62
2023/06/20 04:42:16;;;;;;;;;;;19.00;99.90;;;;;;4956719;28;19922;-62
2023/06/20 04:44:44;;;;;;;;;;;19.00;99.90;;;;;;4970484;28;19922;-62
2023/06/20 04:47:14;;;;;;;;;;;19.00;99.90;;;;;;4952463;28;19926;-62
2023/06/20 04:49:41;;;;;;;;;;;19.10;99.90;;;;;;4957611;28;19927;-63
2023/06/20 04:52:07;;;;;;;;;;;19.20;99.90;;;;;;4956299;28;19922;-62
2023/06/20 04:54:34;;;;;;;;;;;19.10;99.90;;;;;;4957050;28;19944;-61
2023/06/20 04:57:02;;;;;;;;;;;19.00;99.90;;;;;;4956141;28;20243;-63
2023/06/20 04:59:29;;;;;;;;;;;19.00;99.90;;;;;;4970774;28;19929;-63
2023/06/20 05:01:55;;;;;;;;;;;18.90;99.90;;;;;;4955327;28;20005;-62
2023/06/20 05:04:22;;;;;;;;;;;18.90;99.90;;;;;;4955742;28;20020;-63
2023/06/20 05:06:49;;;;;;;;;;;19.00;99.90;;;;;;4952705;28;19926;-63
2023/06/20 05:09:16;;;;;;;;;;;19.10;99.90;;;;;;4953289;28;19926;-63
2023/06/20 05:11:43;;;;;;;;;;;19.20;99.90;;;;;;4955135;28;19958;-63
2023/06/20 05:14:10;;;;;;;;;;;19.20;99.90;;;;;;4974322;28;19926;-62
2023/06/20 05:16:37;;;;;;;;;;;19.20;99.90;;;;;;4974651;28;19976;-63
2023/06/20 05:19:04;;;;;;;;;;;19.30;99.90;;;;;;4966361;28;20357;-62
2023/06/20 05:21:30;;;;;;;;;;;19.30;99.90;;;;;;4974114;28;19922;-62
2023/06/20 05:23:57;;;;;;;;;;;19.30;99.90;;;;;;4973990;28;19976;-62
2023/06/20 05:26:24;;;;;;;;;;;19.40;99.90;;;;;;4974334;28;19954;-62
2023/06/20 05:28:51;;;;;;;;;;;19.50;99.90;;;;;;4965197;28;19929;-63
2023/06/20 05:31:18;;;;;;;;;;;19.50;99.90;;;;;;4973612;28;20099;-63
2023/06/20 05:33:44;;;;;;;;;;;19.60;99.90;;;;;;4974027;28;20267;-63
2023/06/20 05:36:11;;;;;;;;;;;19.70;99.90;;;;;;4954657;28;19922;-63
2023/06/20 05:38:38;;;;;;;;;;;19.80;99.90;;;;;;4974079;28;19922;-62
2023/06/20 05:41:04;;;;;;;;;;;19.80;99.90;;;;;;4973190;28;20410;-62
2023/06/20 05:43:33;;;;;;;;;;;19.90;99.90;;;;;;4956921;28;19926;-62
2023/06/20 05:45:59;;;;;;;;;;;19.90;99.90;;;;;;4967019;28;19949;-62
2023/06/20 05:48:26;;;;;;;;;;;20.10;99.90;;;;;;4965596;28;19922;-63
2023/06/20 05:50:53;;;;;;;;;;;20.10;99.90;;;;;;4971964;28;20271;-62
2023/06/20 05:53:20;;;;;;;;;;;20.20;99.90;;;;;;4968941;28;19944;-63
2023/06/20 05:55:50;;;;;;;;;;;20.30;99.90;;;;;;4969045;28;19929;-63
2023/06/20 05:58:20;;;;;;;;;;;20.40;99.90;;;;;;4971350;28;19926;-62
2023/06/20 06:00:47;;;;;;;;;;;20.40;99.90;;;;;;4971335;28;19922;-63
2023/06/20 06:03:14;;;;;;;;;;;20.40;99.90;;;;;;4973627;28;19922;-62
2023/06/20 06:05:41;;;;;;;;;;;20.50;99.90;;;;;;4959953;28;19944;-61
2023/06/20 06:08:07;;;;;;;;;;;20.40;99.90;;;;;;4973597;28;20005;-62
2023/06/20 06:10:34;;;;;;;;;;;20.40;99.90;;;;;;4966840;28;19944;-62
2023/06/20 06:13:01;;;;;;;;;;;20.40;99.90;;;;;;4973975;28;19922;-62
2023/06/20 06:15:28;;;;;;;;;;;20.40;99.90;;;;;;4972364;28;19921;-63
2023/06/20 06:17:54;;;;;;;;;;;20.40;99.90;;;;;;4973366;28;19929;-63
2023/06/20 06:20:23;;;;;;;;;;;20.40;99.90;;;;;;4967045;28;19984;-63
2023/06/20 06:22:51;;;;;;;;;;;20.50;99.90;;;;;;4967330;28;20264;-63
2023/06/20 06:25:18;;;;;;;;;;;20.50;99.90;;;;;;4973231;28;20413;-62
2023/06/20 06:27:44;;;;;;;;;;;20.70;99.90;;;;;;4973057;28;19922;-63
2023/06/20 06:30:11;;;;;;;;;;;20.80;99.90;;;;;;4973018;28;19929;-62
2023/06/20 06:32:38;;;;;;;;;;;20.80;99.90;;;;;;4966272;28;19969;-62
2023/06/20 06:35:05;;;;;;;;;;;20.90;99.90;;;;;;4972810;28;20395;-62
2023/06/20 06:37:32;;;;;;;;;;;20.90;99.90;;;;;;4965296;28;20275;-63
2023/06/20 06:39:59;;;;;;;;;;;21.10;99.90;;;;;;4968352;28;19923;-63
2023/06/20 06:42:25;;;;;;;;;;;21.30;99.90;;;;;;4970559;28;20483;-62
2023/06/20 06:44:53;;;;;;;;;;;21.50;99.90;;;;;;4950545;28;19926;-62
2023/06/20 06:47:19;;;;;;;;;;;21.60;99.90;;;;;;4955013;28;19921;-63
2023/06/20 06:49:46;;;;;;;;;;;21.80;99.90;;;;;;4972887;28;19964;-62
2023/06/20 06:52:13;;;;;;;;;;;21.90;99.90;;;;;;4964578;28;19926;-63
2023/06/20 06:54:39;;;;;;;;;;;21.90;99.90;;;;;;4973043;28;19922;-62
2023/06/20 06:57:06;;;;;;;;;;;21.90;99.90;;;;;;4972659;28;19929;-62
2023/06/20 06:59:33;;;;;;;;;;;22.00;99.90;;;;;;4972474;28;19922;-63
2023/06/20 07:01:59;;;;;;;;;;;22.20;99.90;;;;;;4964230;28;20003;-63
2023/06/20 07:04:26;;;;;;;;;;;22.20;99.90;;;;;;4972652;28;20529;-63
2023/06/20 07:06:53;;;;;;;;;;;22.40;99.90;;;;;;4972456;28;19965;-63
2023/06/20 07:09:20;;;;;;;;;;;22.50;99.90;;;;;;4972742;28;19926;-63
2023/06/20 07:11:46;;;;;;;;;;;22.60;99.90;;;;;;4969507;28;20286;-62
2023/06/20 07:14:13;;;;;;;;;;;22.90;99.90;;;;;;4965172;28;20282;-62
2023/06/20 07:16:40;;;;;;;;;;;23.10;99.90;;;;;;4972849;28;19929;-62
2023/06/20 07:19:25;;;;;;;;;;;23.10;99.90;;;;;;4972445;28;20390;-63
2023/06/20 07:21:52;;;;;;;;;;;23.40;99.90;;;;;;4970919;28;19978;-62
2023/06/20 07:24:19;;;;;;;;;;;23.70;99.90;;;;;;4970819;28;19922;-62
2023/06/20 07:26:46;;;;;;;;;;;23.90;99.90;;;;;;4966006;28;19921;-63
2023/06/20 07:29:12;;;;;;;;;;;24.30;99.90;;;;;;4972014;28;19922;-63
2023/06/20 07:31:39;;;;;;;;;;;24.50;99.90;;;;;;4953406;28;19929;-63
2023/06/20 07:34:06;;;;;;;;;;;24.60;99.90;;;;;;4964410;28;20367;-62
2023/06/20 07:36:32;;;;;;;;;;;24.40;99.90;;;;;;4971926;28;19930;-62
2023/06/20 07:39:00;;;;;;;;;;;24.30;99.90;;;;;;4972143;28;19922;-63
2023/06/20 07:41:26;;;;;;;;;;;24.20;99.90;;;;;;4970572;28;20307;-63
2023/06/20 07:43:53;;;;;;;;;;;24.00;99.90;;;;;;4970520;28;19933;-62
2023/06/20 07:46:20;;;;;;;;;;;23.80;99.90;;;;;;4972230;28;19929;-62
2023/06/20 07:48:48;;;;;;;;;;;23.70;99.90;;;;;;4971708;28;20391;-61
2023/06/20 07:51:15;;;;;;;;;;;23.80;99.90;;;;;;4967785;28;20013;-62
2023/06/20 07:53:42;;;;;;;;;;;23.80;99.90;;;;;;4968824;28;19922;-63
2023/06/20 07:56:08;;;;;;;;;;;24.00;99.90;;;;;;4975783;28;19933;-63
2023/06/20 07:58:35;;;;;;;;;;;24.20;99.90;;;;;;4975676;28;20371;-62
2023/06/20 08:01:02;;;;;;;;;;;24.40;99.90;;;;;;4973000;28;19962;-62
2023/06/20 08:03:29;;;;;;;;;;;24.40;99.90;;;;;;4975712;28;19922;-63
2023/06/20 08:05:56;;;;;;;;;;;24.20;99.90;;;;;;4970111;28;20319;-63
2023/06/20 08:08:22;;;;;;;;;;;24.20;99.90;;;;;;4966257;28;19969;-63
2023/06/20 08:10:49;;;;;;;;;;;24.30;99.90;;;;;;4974988;28;19929;-63
2023/06/20 08:13:16;;;;;;;;;;;24.60;99.90;;;;;;4975062;28;19933;-63
2023/06/20 08:15:43;;;;;;;;;;;24.80;99.90;;;;;;4974587;28;19937;-62
2023/06/20 08:18:09;;;;;;;;;;;24.90;99.90;;;;;;4975543;28;19953;-63
2023/06/20 08:20:36;;;;;;;;;;;25.00;99.90;;;;;;4974173;28;19962;-62
2023/06/20 08:23:03;;;;;;;;;;;25.10;99.90;;;;;;4958318;28;19930;-63
2023/06/20 08:25:29;;;;;;;;;;;25.30;99.90;;;;;;4981632;28;19929;-63
2023/06/20 08:27:56;;;;;;;;;;;25.40;99.90;;;;;;4975279;28;19926;-63
2023/06/20 08:30:39;;;;;;;;;;;25.40;99.90;;;;;;4975093;28;20016;-62
2023/06/20 08:33:06;;;;;;;;;;;25.50;99.90;;;;;;4973981;28;19938;-62
2023/06/20 08:35:32;;;;;;;;;;;25.70;99.90;;;;;;4975048;28;20016;-63
2023/06/20 08:37:59;;;;;;;;;;;25.80;99.90;;;;;;4975003;28;19922;-63
2023/06/20 08:40:26;;;;;;;;;;;26.00;99.90;;;;;;4974478;28;20378;-63
2023/06/20 08:42:56;;;;;;;;;;;26.10;99.90;;;;;;4973100;28;19922;-63
2023/06/20 08:45:23;;;;;;;;;;;26.30;99.90;;;;;;4975391;28;19930;-63
2023/06/20 08:47:49;;;;;;;;;;;26.50;99.90;;;;;;4974881;28;19922;-63
2023/06/20 08:50:16;;;;;;;;;;;26.60;99.90;;;;;;4971242;28;19922;-63
2023/06/20 08:52:49;;;;;;;;;;;26.70;99.90;;;;;;4975403;28;19928;-63
2023/06/20 08:55:16;;;;;;;;;;;26.80;99.90;;;;;;4974218;28;19922;-63
2023/06/20 08:57:45;;;;;;;;;;;26.90;99.90;;;;;;4974757;28;19922;-63
2023/06/20 09:00:16;;;;;;;;;;;27.00;99.90;;;;;;4971933;28;19921;-63
2023/06/20 09:02:42;;;;;;;;;;;27.00;99.90;;;;;;4974533;28;19922;-63
2023/06/20 09:05:09;;;;;;;;;;;27.00;99.90;;;;;;4973653;28;19925;-63
2023/06/20 09:07:37;;;;;;;;;;;26.80;99.90;;;;;;4966965;28;19930;-63
2023/06/20 09:10:05;;;;;;;;;;;27.00;99.90;;;;;;4974250;28;19937;-63
2023/06/20 09:12:46;;;;;;;;;;;27.10;99.90;;;;;;4974109;28;19930;-63
2023/06/20 09:15:14;;;;;;;;;;;27.30;99.90;;;;;;4967975;28;19927;-63
2023/06/20 09:17:42;;;;;;;;;;;27.30;99.90;;;;;;4974358;28;19926;-63
2023/06/20 09:20:10;;;;;;;;;;;27.30;99.90;;;;;;4973065;28;19922;-63
2023/06/20 09:22:39;;;;;;;;;;;27.10;99.90;;;;;;4974169;28;19922;-63
2023/06/20 09:25:07;;;;;;;;;;;27.10;99.90;;;;;;4966578;28;19956;-63
2023/06/20 09:27:35;;;;;;;;;;;27.30;99.90;;;;;;4974105;28;19921;-63
2023/06/20 09:30:03;;;;;;;;;;;27.50;99.90;;;;;;4974019;28;19922;-63
2023/06/20 09:32:39;;;;;;;;;;;27.60;99.90;;;;;;4956400;28;19922;-63
2023/06/20 09:35:09;;;;;;;;;;;27.80;99.90;;;;;;4960928;28;20386;-63
2023/06/20 09:37:47;;;;;;;;;;;27.90;99.60;;;;;;4973980;28;19922;-63
2023/06/20 09:40:15;;;;;;;;;;;28.00;99.90;;;;;;4973560;28;20392;-63
2023/06/20 09:42:42;;;;;;;;;;;28.00;99.70;;;;;;4970194;28;19930;-63
2023/06/20 09:45:10;;;;;;;;;;;27.90;99.90;;;;;;4969564;28;19922;-63
2023/06/20 09:47:38;;;;;;;;;;;28.00;99.90;;;;;;4973566;28;20004;-63
2023/06/20 09:50:08;;;;;;;;;;;28.00;99.60;;;;;;4974041;28;20386;-63
2023/06/20 09:52:37;;;;;;;;;;;28.20;99.80;;;;;;4964505;28;19926;-63
2023/06/20 09:55:07;;;;;;;;;;;28.20;99.70;;;;;;4973847;28;19922;-63
2023/06/20 09:57:41;;;;;;;;;;;28.40;99.20;;;;;;4973392;28;20342;-63
2023/06/20 10:00:15;;;;;;;;;;;28.50;99.60;;;;;;4972124;28;20013;-63
2023/06/20 10:02:45;;;;;;;;;;;28.60;99.90;;;;;;4964986;28;20377;-63
2023/06/20 10:05:13;;;;;;;;;;;28.60;99.30;;;;;;4973437;28;19921;-63
2023/06/20 10:07:41;;;;;;;;;;;28.80;98.70;;;;;;4973488;28;19937;-63
2023/06/20 10:10:12;;;;;;;;;;;28.70;99.10;;;;;;4962695;28;19926;-63
2023/06/20 10:12:40;;;;;;;;;;;28.70;98.10;;;;;;4972590;28;19922;-63
2023/06/20 10:15:07;;;;;;;;;;;28.80;98.10;;;;;;4966675;28;19930;-63
2023/06/20 10:17:39;;;;;;;;;;;29.00;97.90;;;;;;4971035;28;19973;-63
2023/06/20 10:20:09;;;;;;;;;;;29.10;97.40;;;;;;4973393;28;20024;-63
2023/06/20 10:22:42;;;;;;;;;;;29.20;96.20;;;;;;4972932;28;19933;-63
2023/06/20 10:25:13;;;;;;;;;;;29.60;96.10;;;;;;4967407;28;19922;-63
2023/06/20 10:27:41;;;;;;;;;;;29.60;96.50;;;;;;4973306;28;19933;-63
2023/06/20 10:30:09;;;;;;;;;;;29.50;95.40;;;;;;4972895;28;20389;-63
2023/06/20 10:32:37;;;;;;;;;;;29.50;94.70;;;;;;4962513;28;19929;-63
2023/06/20 10:35:08;;;;;;;;;;;29.50;94.90;;;;;;4967907;28;19973;-63
2023/06/20 10:37:38;;;;;;;;;;;29.60;95.10;;;;;;4972721;28;19933;-63
2023/06/20 10:40:08;;;;;;;;;;;29.60;94.60;;;;;;4973156;28;19926;-63
2023/06/20 10:42:34;;;;;;;;;;;29.80;94.70;;;;;;4963708;28;19941;-63
2023/06/20 10:45:16;;;;;;;;;;;30.10;94.80;;;;;;4973169;28;19929;-63
2023/06/20 10:47:44;;;;;;;;;;;30.30;94.00;;;;;;4972540;28;19922;-63
2023/06/20 10:50:11;;;;;;;;;;;30.20;93.50;;;;;;4968539;28;20014;-63
2023/06/20 10:52:38;;;;;;;;;;;30.10;91.70;;;;;;4969506;28;19930;-63
2023/06/20 10:55:14;;;;;;;;;;;30.30;91.90;;;;;;4972595;28;19929;-63
2023/06/20 10:57:48;;;;;;;;;;;30.30;92.90;;;;;;4972661;28;19929;-63
2023/06/20 11:00:18;;;;;;;;;;;30.40;93.20;;;;;;4971229;28;19929;-63
2023/06/20 11:02:49;;;;;;;;;;;30.60;93.30;;;;;;4972306;28;19922;-63
2023/06/20 11:05:16;;;;;;;;;;;30.80;93.10;;;;;;4972524;28;19926;-63
2023/06/20 11:07:59;;;;;;;;;;;31.00;91.80;;;;;;4972572;28;19928;-63
2023/06/20 11:10:27;;;;;;;;;;;31.00;91.50;;;;;;4971116;28;19945;-63
2023/06/20 11:12:55;;;;;;;;;;;31.10;92.10;;;;;;4966608;28;20370;-63
2023/06/20 11:15:23;;;;;;;;;;;31.30;91.60;;;;;;4972070;28;19922;-63
2023/06/20 11:17:49;;;;;;;;;;;31.40;92.30;;;;;;4964312;28;20393;-64
2023/06/20 11:20:17;;;;;;;;;;;31.40;91.70;;;;;;4958671;28;19922;-63
2023/06/20 11:22:45;;;;;;;;;;;31.20;91.30;;;;;;4971915;28;19930;-63
2023/06/20 11:25:19;;;;;;;;;;;31.30;90.40;;;;;;4972214;28;20259;-63
2023/06/20 11:27:46;;;;;;;;;;;31.40;91.30;;;;;;4956873;28;19933;-63
2023/06/20 11:30:13;;;;;;;;;;;31.60;90.30;;;;;;4971652;28;19929;-63
2023/06/20 11:32:40;;;;;;;;;;;31.70;91.20;;;;;;4958007;28;19926;-63
2023/06/20 11:35:08;;;;;;;;;;;31.80;90.40;;;;;;4976096;28;19929;-63
2023/06/20 11:37:35;;;;;;;;;;;31.80;90.90;;;;;;4969249;28;19926;-63
2023/06/20 11:40:09;;;;;;;;;;;31.80;90.40;;;;;;4976215;28;20409;-63
2023/06/20 11:42:37;;;;;;;;;;;31.80;91.10;;;;;;4975614;28;20024;-64
2023/06/20 11:45:08;;;;;;;;;;;31.80;89.30;;;;;;4976213;28;19922;-64
2023/06/20 11:47:35;;;;;;;;;;;32.10;89.10;;;;;;4969235;28;20017;-64
2023/06/20 11:50:02;;;;;;;;;;;32.00;90.60;;;;;;4976196;28;20430;-63
2023/06/20 11:52:32;;;;;;;;;;;32.00;89.30;;;;;;4975411;28;19922;-64
2023/06/20 11:54:59;;;;;;;;;;;31.90;89.30;;;;;;4972760;28;19931;-64
2023/06/20 11:57:26;;;;;;;;;;;32.00;87.90;;;;;;4972712;28;19957;-63
2023/06/20 11:59:59;;;;;;;;;;;32.20;89.00;;;;;;4975474;28;19932;-63
2023/06/20 12:02:26;;;;;;;;;;;32.40;86.90;;;;;;4975680;28;19926;-63
2023/06/20 12:04:57;;;;;;;;;;;32.50;89.80;;;;;;4970923;28;19925;-64
2023/06/20 12:07:27;;;;;;;;;;;32.60;89.80;;;;;;4972458;28;19928;-63
2023/06/20 12:09:54;;;;;;;;;;;32.60;87.40;;;;;;4973532;28;19933;-64
2023/06/20 12:12:31;;;;;;;;;;;32.70;85.30;;;;;;4974936;28;20016;-63
2023/06/20 12:14:57;;;;;;;;;;;32.50;88.70;;;;;;4979403;28;19929;-64
2023/06/20 12:17:24;;;;;;;;;;;32.80;85.40;;;;;;4975490;28;19929;-63
2023/06/20 12:19:52;;;;;;;;;;;32.90;85.40;;;;;;4970498;28;20365;-63
2023/06/20 12:22:19;;;;;;;;;;;32.50;86.30;;;;;;4975270;28;19929;-63
2023/06/20 12:24:46;;;;;;;;;;;32.60;86.60;;;;;;4974831;28;19926;-64
2023/06/20 12:27:13;;;;;;;;;;;32.70;86.40;;;;;;4975614;28;19992;-63
2023/06/20 12:29:39;;;;;;;;;;;32.80;86.70;;;;;;4971732;28;19969;-63
2023/06/20 12:32:08;;;;;;;;;;;32.80;88.10;;;;;;4975216;28;19926;-64
2023/06/20 12:34:36;;;;;;;;;;;33.10;85.20;;;;;;4974939;28;19932;-63
2023/06/20 12:37:03;;;;;;;;;;;33.20;87.20;;;;;;4973505;28;20280;-63
2023/06/20 12:39:30;;;;;;;;;;;33.20;86.50;;;;;;4971516;28;19968;-64
2023/06/20 12:41:56;;;;;;;;;;;33.20;85.80;;;;;;4974857;28;19945;-64
2023/06/20 12:44:23;;;;;;;;;;;33.40;84.40;;;;;;4975067;28;19977;-64
2023/06/20 12:46:50;;;;;;;;;;;33.40;85.90;;;;;;4969182;28;19928;-64
2023/06/20 12:49:16;;;;;;;;;;;33.30;84.80;;;;;;4975133;28;19922;-63
2023/06/20 12:51:43;;;;;;;;;;;33.40;86.30;;;;;;4974167;28;19922;-63
2023/06/20 12:54:10;;;;;;;;;;;33.40;84.80;;;;;;4975019;28;19926;-64
2023/06/20 12:56:37;;;;;;;;;;;33.50;84.10;;;;;;4967893;28;19929;-64
2023/06/20 12:59:04;;;;;;;;;;;33.60;83.60;;;;;;4975037;28;20029;-64
2023/06/20 13:01:31;;;;;;;;;;;33.70;81.50;;;;;;4973747;28;20367;-64
2023/06/20 13:03:58;;;;;;;;;;;33.80;79.00;;;;;;4970820;28;20390;-64
2023/06/20 13:06:24;;;;;;;;;;;33.90;80.40;;;;;;4974785;28;19921;-64
2023/06/20 13:08:52;;;;;;;;;;;33.70;80.60;;;;;;4974482;28;19921;-63
2023/06/20 13:11:19;;;;;;;;;;;33.60;81.00;;;;;;4968547;28;19934;-63
2023/06/20 13:13:46;;;;;;;;;;;33.60;80.20;;;;;;4974568;28;20214;-64
2023/06/20 13:16:13;;;;;;;;;;;33.60;80.80;;;;;;4973539;28;19921;-64
2023/06/20 13:18:39;;;;;;;;;;;33.60;80.20;;;;;;4967909;28;19922;-63
2023/06/20 13:21:06;;;;;;;;;;;33.70;78.10;;;;;;4973998;28;19937;-64
2023/06/20 13:23:33;;;;;;;;;;;34.20;77.30;;;;;;4973964;28;19937;-64
2023/06/20 13:25:59;;;;;;;;;;;34.60;78.30;;;;;;4974496;28;19922;-64
2023/06/20 13:28:26;;;;;;;;;;;35.00;76.10;;;;;;4968503;28;19933;-64
2023/06/20 13:30:53;;;;;;;;;;;35.20;76.30;;;;;;4973664;28;20295;-64
2023/06/20 13:33:20;;;;;;;;;;;35.10;75.20;;;;;;4974019;28;19980;-63
2023/06/20 13:35:47;;;;;;;;;;;35.30;75.70;;;;;;4973972;28;19922;-64
2023/06/20 13:38:14;;;;;;;;;;;35.20;74.30;;;;;;4968317;28;19922;-64
2023/06/20 13:40:40;;;;;;;;;;;35.30;74.40;;;;;;4973273;28;19929;-64
2023/06/20 13:43:07;;;;;;;;;;;35.50;73.50;;;;;;4973952;28;20264;-64
2023/06/20 13:45:34;;;;;;;;;;;35.80;74.70;;;;;;4968558;28;19930;-63
2023/06/20 13:48:01;;;;;;;;;;;35.70;72.80;;;;;;4973958;28;20020;-63
2023/06/20 13:50:28;;;;;;;;;;;35.60;70.40;;;;;;4972447;28;20362;-64
2023/06/20 13:52:55;;;;;;;;;;;35.50;70.00;;;;;;4973789;28;19972;-64
2023/06/20 13:55:21;;;;;;;;;;;35.50;71.00;;;;;;4964998;28;19922;-64
2023/06/20 13:57:48;;;;;;;;;;;35.30;71.00;;;;;;4973888;28;19926;-64
2023/06/20 14:00:15;;;;;;;;;;;35.20;69.30;;;;;;4973053;28;20359;-64
2023/06/20 14:02:42;;;;;;;;;;;35.30;66.10;;;;;;4973251;28;19972;-64
2023/06/20 14:05:11;;;;;;;;;;;35.50;66.10;;;;;;4963418;28;19922;-64
2023/06/20 14:07:38;;;;;;;;;;;35.40;68.20;;;;;;4973453;28;20012;-64
2023/06/20 14:10:05;;;;;;;;;;;35.30;71.00;;;;;;4973175;28;20037;-64
2023/06/20 14:12:32;;;;;;;;;;;35.20;69.30;;;;;;4966135;28;19928;-63
2023/06/20 14:15:02;;;;;;;;;;;35.20;65.50;;;;;;4965899;28;19922;-64
2023/06/20 14:17:29;;;;;;;;;;;35.10;64.30;;;;;;4967841;28;19929;-64
2023/06/20 14:19:56;;;;;;;;;;;35.10;65.00;;;;;;4973101;28;19944;-64
2023/06/20 14:22:22;;;;;;;;;;;35.10;68.80;;;;;;4972043;28;19922;-64